sensor_id;sensor_type;location;lat;lon;timestamp;temperature;humidity
981;DHT22;479;53.514;9.994;2022-12-18T00:02:02;-4.00;99.90
981;DHT22;479;53.514;9.994;2022-12-18T00:04:29;-4.00;99.90
981;DHT22;479;53.514;9.994;2022-12-18T00:06:57;-4.00;99.90
981;DHT22;479;53.514;9.994;2022-12-18T00:09:24;-4.00;99.90
981;DHT22;479;53.514;9.994;2022-12-18T00:11:51;-4.00;99.90
981;DHT22;479;53.514;9.994;2022-12-18T00:14:18;-4.10;99.90
981;DHT22;479;53.514;9.994;2022-12-18T00:16:45;-4.10;99.90
981;DHT22;479;53.514;9.994;2022-12-18T00:19:13;-4.10;99.90
981;DHT22;479;53.514;9.994;2022-12-18T00:21:42;-4.10;99.90
981;DHT22;479;53.514;9.994;2022-12-18T00:24:11;-4.20;99.90
981;DHT22;479;53.514;9.994;2022-12-18T00:26:39;-4.10;99.90
981;DHT22;479;53.514;9.994;2022-12-18T00:29:07;-4.10;99.90
981;DHT22;479;53.514;9.994;2022-12-18T00:31:37;-4.10;99.90
981;DHT22;479;53.514;9.994;2022-12-18T00:34:04;-4.20;99.90
981;DHT22;479;53.514;9.994;2022-12-18T00:36:33;-4.10;99.90
981;DHT22;479;53.514;9.994;2022-12-18T00:39:03;-4.20;99.90
981;DHT22;479;53.514;9.994;2022-12-18T00:41:32;-4.20;99.90
981;DHT22;479;53.514;9.994;2022-12-18T00:44:18;-4.30;99.90
981;DHT22;479;53.514;9.994;2022-12-18T00:46:47;-4.30;99.90
981;DHT22;479;53.514;9.994;2022-12-18T00:49:15;-4.30;99.90
981;DHT22;479;53.514;9.994;2022-12-18T00:51:42;-4.20;99.90
981;DHT22;479;53.514;9.994;2022-12-18T00:54:09;-4.30;99.90
981;DHT22;479;53.514;9.994;2022-12-18T00:56:38;-4.30;99.90
981;DHT22;479;53.514;9.994;2022-12-18T00:59:06;-4.30;99.90
981;DHT22;479;53.514;9.994;2022-12-18T01:01:33;-4.30;99.90
981;DHT22;479;53.514;9.994;2022-12-18T01:04:01;-4.30;99.90
981;DHT22;479;53.514;9.994;2022-12-18T01:06:29;-4.30;99.90
981;DHT22;479;53.514;9.994;2022-12-18T01:08:55;-4.30;99.90
981;DHT22;479;53.514;9.994;2022-12-18T01:11:23;-4.30;99.90
981;DHT22;479;53.514;9.994;2022-12-18T01:13:53;-4.30;99.90
981;DHT22;479;53.514;9.994;2022-12-18T01:16:21;-4.30;99.90
981;DHT22;479;53.514;9.994;2022-12-18T01:18:51;-4.30;99.90
981;DHT22;479;53.514;9.994;2022-12-18T01:21:19;-4.40;99.90
981;DHT22;479;53.514;9.994;2022-12-18T01:23:46;-4.30;99.90
981;DHT22;479;53.514;9.994;2022-12-18T01:26:17;-4.40;99.90
981;DHT22;479;53.514;9.994;2022-12-18T01:28:44;-4.40;99.90
981;DHT22;479;53.514;9.994;2022-12-18T01:31:16;-4.30;99.90
981;DHT22;479;53.514;9.994;2022-12-18T01:33:43;-4.30;99.90
981;DHT22;479;53.514;9.994;2022-12-18T01:36:18;-4.30;99.90
981;DHT22;479;53.514;9.994;2022-12-18T01:38:46;-4.30;99.90
981;DHT22;479;53.514;9.994;2022-12-18T01:41:13;-4.40;99.90
981;DHT22;479;53.514;9.994;2022-12-18T01:43:46;-4.40;99.90
981;DHT22;479;53.514;9.994;2022-12-18T01:46:15;-4.30;99.90
981;DHT22;479;53.514;9.994;2022-12-18T01:48:42;-4.40;99.90
981;DHT22;479;53.514;9.994;2022-12-18T01:51:10;-4.40;99.90
981;DHT22;479;53.514;9.994;2022-12-18T01:53:39;-4.40;99.90
981;DHT22;479;53.514;9.994;2022-12-18T01:56:07;-4.50;99.90
981;DHT22;479;53.514;9.994;2022-12-18T01:58:41;-4.40;99.90
981;DHT22;479;53.514;9.994;2022-12-18T02:01:12;-4.40;99.90
981;DHT22;479;53.514;9.994;2022-12-18T02:03:42;-4.50;99.90
981;DHT22;479;53.514;9.994;2022-12-18T02:06:15;-4.50;99.90
981;DHT22;479;53.514;9.994;2022-12-18T02:08:51;-4.50;99.90
981;DHT22;479;53.514;9.994;2022-12-18T02:11:28;-4.50;99.90
981;DHT22;479;53.514;9.994;2022-12-18T02:14:04;-4.60;99.90
981;DHT22;479;53.514;9.994;2022-12-18T02:16:40;-4.60;99.90
981;DHT22;479;53.514;9.994;2022-12-18T02:19:21;-4.60;99.90
981;DHT22;479;53.514;9.994;2022-12-18T02:21:57;-4.50;99.90
981;DHT22;479;53.514;9.994;2022-12-18T02:24:35;-4.50;99.90
981;DHT22;479;53.514;9.994;2022-12-18T02:27:07;-4.50;99.90
981;DHT22;479;53.514;9.994;2022-12-18T02:29:38;-4.50;99.90
981;DHT22;479;53.514;9.994;2022-12-18T02:32:10;-4.50;99.90
981;DHT22;479;53.514;9.994;2022-12-18T02:34:39;-4.50;99.90
981;DHT22;479;53.514;9.994;2022-12-18T02:37:14;-4.50;99.90
981;DHT22;479;53.514;9.994;2022-12-18T02:39:43;-4.60;99.90
981;DHT22;479;53.514;9.994;2022-12-18T02:42:14;-4.60;99.90
981;DHT22;479;53.514;9.994;2022-12-18T02:44:43;-4.60;99.90
981;DHT22;479;53.514;9.994;2022-12-18T02:47:12;-4.60;99.90
981;DHT22;479;53.514;9.994;2022-12-18T02:49:44;-4.70;99.90
981;DHT22;479;53.514;9.994;2022-12-18T02:52:20;-4.70;99.90
981;DHT22;479;53.514;9.994;2022-12-18T02:54:57;-4.70;99.90
981;DHT22;479;53.514;9.994;2022-12-18T02:57:34;-4.80;99.90
981;DHT22;479;53.514;9.994;2022-12-18T03:00:06;-4.80;99.90
981;DHT22;479;53.514;9.994;2022-12-18T03:02:40;-4.80;99.90
981;DHT22;479;53.514;9.994;2022-12-18T03:05:13;-4.80;99.90
981;DHT22;479;53.514;9.994;2022-12-18T03:07:45;-4.80;99.90
981;DHT22;479;53.514;9.994;2022-12-18T03:10:16;-4.80;99.90
981;DHT22;479;53.514;9.994;2022-12-18T03:12:50;-4.90;99.90
981;DHT22;479;53.514;9.994;2022-12-18T03:15:21;-5.00;99.90
981;DHT22;479;53.514;9.994;2022-12-18T03:18:01;-5.10;99.90
981;DHT22;479;53.514;9.994;2022-12-18T03:20:32;-5.10;99.90
981;DHT22;479;53.514;9.994;2022-12-18T03:23:06;-5.10;99.90
981;DHT22;479;53.514;9.994;2022-12-18T03:25:36;-5.10;99.90
981;DHT22;479;53.514;9.994;2022-12-18T03:28:10;-5.10;99.90
981;DHT22;479;53.514;9.994;2022-12-18T03:30:40;-5.10;99.90
981;DHT22;479;53.514;9.994;2022-12-18T03:33:10;-5.20;99.90
981;DHT22;479;53.514;9.994;2022-12-18T03:35:43;-5.20;99.90
981;DHT22;479;53.514;9.994;2022-12-18T03:38:11;-5.10;99.90
981;DHT22;479;53.514;9.994;2022-12-18T03:40:53;-5.10;99.90
981;DHT22;479;53.514;9.994;2022-12-18T03:43:35;-5.10;99.90
981;DHT22;479;53.514;9.994;2022-12-18T03:46:14;-5.00;99.90
981;DHT22;479;53.514;9.994;2022-12-18T03:48:44;-5.00;99.90
981;DHT22;479;53.514;9.994;2022-12-18T03:51:24;-5.00;99.90
981;DHT22;479;53.514;9.994;2022-12-18T03:53:56;-5.00;99.90
981;DHT22;479;53.514;9.994;2022-12-18T03:56:33;-5.00;99.90
981;DHT22;479;53.514;9.994;2022-12-18T03:59:03;-5.00;99.90
981;DHT22;479;53.514;9.994;2022-12-18T04:01:34;-5.00;99.90
981;DHT22;479;53.514;9.994;2022-12-18T04:04:03;-5.00;99.90
981;DHT22;479;53.514;9.994;2022-12-18T04:06:34;-5.00;99.90
981;DHT22;479;53.514;9.994;2022-12-18T04:09:02;-5.00;99.90
981;DHT22;479;53.514;9.994;2022-12-18T04:11:32;-5.00;99.90
981;DHT22;479;53.514;9.994;2022-12-18T04:14:02;-5.10;99.90
981;DHT22;479;53.514;9.994;2022-12-18T04:16:30;-5.10;99.90
981;DHT22;479;53.514;9.994;2022-12-18T04:19:00;-5.10;99.90
981;DHT22;479;53.514;9.994;2022-12-18T04:21:30;-5.10;99.90
981;DHT22;479;53.514;9.994;2022-12-18T04:23:57;-5.10;99.90
981;DHT22;479;53.514;9.994;2022-12-18T04:26:24;-5.10;99.90
981;DHT22;479;53.514;9.994;2022-12-18T04:29:16;-5.10;99.90
981;DHT22;479;53.514;9.994;2022-12-18T04:31:43;-5.10;99.90
981;DHT22;479;53.514;9.994;2022-12-18T04:34:10;-5.10;99.90
981;DHT22;479;53.514;9.994;2022-12-18T04:36:42;-5.10;99.90
981;DHT22;479;53.514;9.994;2022-12-18T04:39:09;-5.10;99.90
981;DHT22;479;53.514;9.994;2022-12-18T04:41:36;-5.10;99.90
981;DHT22;479;53.514;9.994;2022-12-18T04:44:04;-5.10;99.90
981;DHT22;479;53.514;9.994;2022-12-18T04:46:32;-5.20;99.90
981;DHT22;479;53.514;9.994;2022-12-18T04:48:59;-5.10;99.90
981;DHT22;479;53.514;9.994;2022-12-18T04:51:26;-5.20;99.90
981;DHT22;479;53.514;9.994;2022-12-18T04:53:53;-5.20;99.90
981;DHT22;479;53.514;9.994;2022-12-18T04:56:20;-5.10;99.90
981;DHT22;479;53.514;9.994;2022-12-18T04:58:47;-5.10;99.90
981;DHT22;479;53.514;9.994;2022-12-18T05:01:16;-5.20;99.90
981;DHT22;479;53.514;9.994;2022-12-18T05:03:44;-5.20;99.90
981;DHT22;479;53.514;9.994;2022-12-18T05:06:11;-5.20;99.90
981;DHT22;479;53.514;9.994;2022-12-18T05:08:38;-5.30;99.90
981;DHT22;479;53.514;9.994;2022-12-18T05:11:06;-5.30;99.90
981;DHT22;479;53.514;9.994;2022-12-18T05:13:34;-5.40;99.90
981;DHT22;479;53.514;9.994;2022-12-18T05:16:01;-5.50;99.90
981;DHT22;479;53.514;9.994;2022-12-18T05:18:28;-5.50;99.90
981;DHT22;479;53.514;9.994;2022-12-18T05:20:57;-5.60;99.90
981;DHT22;479;53.514;9.994;2022-12-18T05:23:24;-5.60;99.90
981;DHT22;479;53.514;9.994;2022-12-18T05:25:52;-5.60;99.90
981;DHT22;479;53.514;9.994;2022-12-18T05:28:20;-5.60;99.90
981;DHT22;479;53.514;9.994;2022-12-18T05:30:48;-5.60;99.90
981;DHT22;479;53.514;9.994;2022-12-18T05:33:16;-5.60;99.90
981;DHT22;479;53.514;9.994;2022-12-18T05:35:43;-5.60;99.90
981;DHT22;479;53.514;9.994;2022-12-18T05:38:11;-5.60;99.90
981;DHT22;479;53.514;9.994;2022-12-18T05:40:41;-5.50;99.90
981;DHT22;479;53.514;9.994;2022-12-18T05:43:08;-5.50;99.90
981;DHT22;479;53.514;9.994;2022-12-18T05:45:37;-5.40;99.90
981;DHT22;479;53.514;9.994;2022-12-18T05:48:04;-5.40;99.90
981;DHT22;479;53.514;9.994;2022-12-18T05:50:33;-5.40;99.90
981;DHT22;479;53.514;9.994;2022-12-18T05:53:01;-5.40;99.90
981;DHT22;479;53.514;9.994;2022-12-18T05:55:32;-5.30;99.90
981;DHT22;479;53.514;9.994;2022-12-18T05:57:59;-5.40;99.90
981;DHT22;479;53.514;9.994;2022-12-18T06:00:26;-5.50;99.90
981;DHT22;479;53.514;9.994;2022-12-18T06:02:53;-5.60;99.90
981;DHT22;479;53.514;9.994;2022-12-18T06:05:20;-5.60;99.90
981;DHT22;479;53.514;9.994;2022-12-18T06:07:47;-5.70;99.90
981;DHT22;479;53.514;9.994;2022-12-18T06:10:14;-5.80;99.90
981;DHT22;479;53.514;9.994;2022-12-18T06:12:42;-5.80;99.90
981;DHT22;479;53.514;9.994;2022-12-18T06:15:09;-5.80;99.90
981;DHT22;479;53.514;9.994;2022-12-18T06:17:37;-5.80;99.90
981;DHT22;479;53.514;9.994;2022-12-18T06:20:05;-5.90;99.90
981;DHT22;479;53.514;9.994;2022-12-18T06:22:32;-5.90;99.90
981;DHT22;479;53.514;9.994;2022-12-18T06:25:00;-5.80;99.90
981;DHT22;479;53.514;9.994;2022-12-18T06:27:27;-5.70;99.90
981;DHT22;479;53.514;9.994;2022-12-18T06:29:55;-5.70;99.90
981;DHT22;479;53.514;9.994;2022-12-18T06:32:22;-5.70;99.90
981;DHT22;479;53.514;9.994;2022-12-18T06:34:49;-5.80;99.90
981;DHT22;479;53.514;9.994;2022-12-18T06:37:16;-5.90;99.90
981;DHT22;479;53.514;9.994;2022-12-18T06:39:43;-5.90;99.90
981;DHT22;479;53.514;9.994;2022-12-18T06:42:09;-5.90;99.90
981;DHT22;479;53.514;9.994;2022-12-18T06:44:36;-6.00;99.90
981;DHT22;479;53.514;9.994;2022-12-18T06:47:04;-6.00;99.90
981;DHT22;479;53.514;9.994;2022-12-18T06:49:31;-6.00;99.90
981;DHT22;479;53.514;9.994;2022-12-18T06:51:58;-5.90;99.90
981;DHT22;479;53.514;9.994;2022-12-18T06:54:25;-5.90;99.90
981;DHT22;479;53.514;9.994;2022-12-18T06:56:52;-5.90;99.90
981;DHT22;479;53.514;9.994;2022-12-18T06:59:21;-5.80;99.90
981;DHT22;479;53.514;9.994;2022-12-18T07:01:48;-5.80;99.90
981;DHT22;479;53.514;9.994;2022-12-18T07:04:17;-5.80;99.90
981;DHT22;479;53.514;9.994;2022-12-18T07:06:44;-5.80;99.90
981;DHT22;479;53.514;9.994;2022-12-18T07:09:10;-5.80;99.90
981;DHT22;479;53.514;9.994;2022-12-18T07:11:37;-5.80;99.90
981;DHT22;479;53.514;9.994;2022-12-18T07:14:04;-5.80;99.90
981;DHT22;479;53.514;9.994;2022-12-18T07:16:31;-5.80;99.90
981;DHT22;479;53.514;9.994;2022-12-18T07:18:58;-5.70;99.90
981;DHT22;479;53.514;9.994;2022-12-18T07:21:26;-5.70;99.90
981;DHT22;479;53.514;9.994;2022-12-18T07:23:53;-5.60;99.90
981;DHT22;479;53.514;9.994;2022-12-18T07:26:21;-5.50;99.90
981;DHT22;479;53.514;9.994;2022-12-18T07:28:48;-5.50;99.90
981;DHT22;479;53.514;9.994;2022-12-18T07:31:18;-5.40;99.90
981;DHT22;479;53.514;9.994;2022-12-18T07:33:45;-5.40;99.90
981;DHT22;479;53.514;9.994;2022-12-18T07:36:13;-5.40;99.90
981;DHT22;479;53.514;9.994;2022-12-18T07:38:41;-5.30;99.90
981;DHT22;479;53.514;9.994;2022-12-18T07:41:10;-5.30;99.90
981;DHT22;479;53.514;9.994;2022-12-18T07:43:38;-5.30;99.90
981;DHT22;479;53.514;9.994;2022-12-18T07:46:05;-5.30;99.90
981;DHT22;479;53.514;9.994;2022-12-18T07:48:32;-5.30;99.90
981;DHT22;479;53.514;9.994;2022-12-18T07:50:59;-5.20;99.90
981;DHT22;479;53.514;9.994;2022-12-18T07:53:27;-5.20;99.90
981;DHT22;479;53.514;9.994;2022-12-18T07:55:56;-5.20;99.90
981;DHT22;479;53.514;9.994;2022-12-18T07:58:23;-5.10;99.90
981;DHT22;479;53.514;9.994;2022-12-18T08:00:50;-5.10;99.90
981;DHT22;479;53.514;9.994;2022-12-18T08:03:17;-5.10;99.90
981;DHT22;479;53.514;9.994;2022-12-18T08:05:44;-5.10;99.90
981;DHT22;479;53.514;9.994;2022-12-18T08:08:11;-5.20;99.90
981;DHT22;479;53.514;9.994;2022-12-18T08:10:38;-5.20;99.90
981;DHT22;479;53.514;9.994;2022-12-18T08:13:06;-5.30;99.90
981;DHT22;479;53.514;9.994;2022-12-18T08:15:33;-5.30;99.90
981;DHT22;479;53.514;9.994;2022-12-18T08:18:00;-5.30;99.90
981;DHT22;479;53.514;9.994;2022-12-18T08:20:27;-5.30;99.90
981;DHT22;479;53.514;9.994;2022-12-18T08:22:54;-5.30;99.90
981;DHT22;479;53.514;9.994;2022-12-18T08:25:20;-5.30;99.90
981;DHT22;479;53.514;9.994;2022-12-18T08:27:48;-5.30;99.90
981;DHT22;479;53.514;9.994;2022-12-18T08:30:16;-5.20;99.90
981;DHT22;479;53.514;9.994;2022-12-18T08:32:43;-5.20;99.90
981;DHT22;479;53.514;9.994;2022-12-18T08:35:10;-5.10;99.90
981;DHT22;479;53.514;9.994;2022-12-18T08:37:37;-5.10;99.90
981;DHT22;479;53.514;9.994;2022-12-18T08:40:05;-5.00;99.90
981;DHT22;479;53.514;9.994;2022-12-18T08:42:33;-4.90;99.90
981;DHT22;479;53.514;9.994;2022-12-18T08:45:18;-4.90;99.90
981;DHT22;479;53.514;9.994;2022-12-18T08:47:45;-4.80;99.90
981;DHT22;479;53.514;9.994;2022-12-18T08:50:12;-4.70;99.90
981;DHT22;479;53.514;9.994;2022-12-18T08:52:40;-4.70;99.90
981;DHT22;479;53.514;9.994;2022-12-18T08:55:08;-4.70;99.90
981;DHT22;479;53.514;9.994;2022-12-18T08:57:35;-4.80;99.90
981;DHT22;479;53.514;9.994;2022-12-18T09:00:03;-4.80;99.90
981;DHT22;479;53.514;9.994;2022-12-18T09:02:31;-4.80;99.90
981;DHT22;479;53.514;9.994;2022-12-18T09:04:58;-4.70;99.90
981;DHT22;479;53.514;9.994;2022-12-18T09:07:25;-4.70;99.90
981;DHT22;479;53.514;9.994;2022-12-18T09:09:52;-4.60;99.90
981;DHT22;479;53.514;9.994;2022-12-18T09:12:19;-4.60;99.90
981;DHT22;479;53.514;9.994;2022-12-18T09:14:46;-4.50;99.90
981;DHT22;479;53.514;9.994;2022-12-18T09:17:12;-4.30;99.90
981;DHT22;479;53.514;9.994;2022-12-18T09:19:41;-4.00;99.90
981;DHT22;479;53.514;9.994;2022-12-18T09:22:07;-3.60;99.90
981;DHT22;479;53.514;9.994;2022-12-18T09:24:35;-3.30;99.90
981;DHT22;479;53.514;9.994;2022-12-18T09:27:02;-3.10;99.90
981;DHT22;479;53.514;9.994;2022-12-18T09:29:28;-2.80;99.90
981;DHT22;479;53.514;9.994;2022-12-18T09:31:55;-2.70;99.90
981;DHT22;479;53.514;9.994;2022-12-18T09:34:22;-2.50;99.90
981;DHT22;479;53.514;9.994;2022-12-18T09:36:51;-2.50;99.90
981;DHT22;479;53.514;9.994;2022-12-18T09:39:17;-2.30;99.90
981;DHT22;479;53.514;9.994;2022-12-18T09:41:46;-2.40;99.90
981;DHT22;479;53.514;9.994;2022-12-18T09:44:25;-2.50;99.90
981;DHT22;479;53.514;9.994;2022-12-18T09:47:06;-2.40;99.90
981;DHT22;479;53.514;9.994;2022-12-18T09:49:38;-2.20;99.90
981;DHT22;479;53.514;9.994;2022-12-18T09:52:14;-1.90;99.90
981;DHT22;479;53.514;9.994;2022-12-18T09:54:44;-1.60;99.90
981;DHT22;479;53.514;9.994;2022-12-18T09:57:14;-1.20;99.90
981;DHT22;479;53.514;9.994;2022-12-18T09:59:46;-1.10;99.90
981;DHT22;479;53.514;9.994;2022-12-18T10:02:17;-0.90;99.90
981;DHT22;479;53.514;9.994;2022-12-18T10:04:48;-0.90;99.90
981;DHT22;479;53.514;9.994;2022-12-18T10:07:24;-1.10;99.90
981;DHT22;479;53.514;9.994;2022-12-18T10:09:58;-0.90;99.90
981;DHT22;479;53.514;9.994;2022-12-18T10:12:35;-0.80;99.90
981;DHT22;479;53.514;9.994;2022-12-18T10:15:10;-0.80;99.90
981;DHT22;479;53.514;9.994;2022-12-18T10:17:47;-0.50;99.90
981;DHT22;479;53.514;9.994;2022-12-18T10:20:19;-0.50;99.90
981;DHT22;479;53.514;9.994;2022-12-18T10:22:55;-0.60;99.90
981;DHT22;479;53.514;9.994;2022-12-18T10:25:26;-0.60;99.90
981;DHT22;479;53.514;9.994;2022-12-18T10:27:58;-0.40;99.90
981;DHT22;479;53.514;9.994;2022-12-18T10:30:26;-0.20;99.90
981;DHT22;479;53.514;9.994;2022-12-18T10:32:53;-0.30;99.90
981;DHT22;479;53.514;9.994;2022-12-18T10:35:23;-0.50;99.90
981;DHT22;479;53.514;9.994;2022-12-18T10:38:03;-0.60;99.90
981;DHT22;479;53.514;9.994;2022-12-18T10:40:31;-0.80;99.90
981;DHT22;479;53.514;9.994;2022-12-18T10:43:12;-0.80;99.90
981;DHT22;479;53.514;9.994;2022-12-18T10:45:40;-0.80;99.90
981;DHT22;479;53.514;9.994;2022-12-18T10:48:18;-0.80;99.90
981;DHT22;479;53.514;9.994;2022-12-18T10:50:48;-0.90;99.90
981;DHT22;479;53.514;9.994;2022-12-18T10:53:20;-0.80;99.90
981;DHT22;479;53.514;9.994;2022-12-18T10:55:48;-0.80;99.90
981;DHT22;479;53.514;9.994;2022-12-18T10:58:19;-0.60;99.90
981;DHT22;479;53.514;9.994;2022-12-18T11:01:05;-0.50;99.90
981;DHT22;479;53.514;9.994;2022-12-18T11:03:35;-0.40;99.90
981;DHT22;479;53.514;9.994;2022-12-18T11:06:08;-0.30;99.90
981;DHT22;479;53.514;9.994;2022-12-18T11:08:37;-0.20;99.90
981;DHT22;479;53.514;9.994;2022-12-18T11:11:07;-0.30;99.90
981;DHT22;479;53.514;9.994;2022-12-18T11:13:52;-0.30;99.90
981;DHT22;479;53.514;9.994;2022-12-18T11:16:21;-0.60;99.90
981;DHT22;479;53.514;9.994;2022-12-18T11:18:49;-0.60;99.90
981;DHT22;479;53.514;9.994;2022-12-18T11:21:16;-0.70;99.90
981;DHT22;479;53.514;9.994;2022-12-18T11:23:49;-0.90;99.90
981;DHT22;479;53.514;9.994;2022-12-18T11:26:16;-1.00;99.90
981;DHT22;479;53.514;9.994;2022-12-18T11:28:45;-1.20;99.90
981;DHT22;479;53.514;9.994;2022-12-18T11:31:20;-1.30;99.90
981;DHT22;479;53.514;9.994;2022-12-18T11:33:52;-1.50;99.90
981;DHT22;479;53.514;9.994;2022-12-18T11:36:21;-1.70;99.90
981;DHT22;479;53.514;9.994;2022-12-18T11:38:52;-1.90;99.90
981;DHT22;479;53.514;9.994;2022-12-18T11:41:24;-1.90;99.90
981;DHT22;479;53.514;9.994;2022-12-18T11:44:15;-2.00;99.90
981;DHT22;479;53.514;9.994;2022-12-18T11:46:46;-2.00;99.90
981;DHT22;479;53.514;9.994;2022-12-18T11:49:18;-2.00;99.90
981;DHT22;479;53.514;9.994;2022-12-18T11:51:51;-1.90;99.90
981;DHT22;479;53.514;9.994;2022-12-18T11:54:21;-1.80;99.90
981;DHT22;479;53.514;9.994;2022-12-18T11:56:50;-1.80;99.90
981;DHT22;479;53.514;9.994;2022-12-18T11:59:26;-1.80;99.90
981;DHT22;479;53.514;9.994;2022-12-18T12:02:00;-1.90;99.90
981;DHT22;479;53.514;9.994;2022-12-18T12:07:44;-2.00;99.90
981;DHT22;479;53.514;9.994;2022-12-18T12:10:26;-2.00;99.90
981;DHT22;479;53.514;9.994;2022-12-18T12:13:03;-2.10;99.90
981;DHT22;479;53.514;9.994;2022-12-18T12:15:39;-2.00;99.90
981;DHT22;479;53.514;9.994;2022-12-18T12:18:19;-2.10;99.90
981;DHT22;479;53.514;9.994;2022-12-18T12:20:52;-1.90;99.90
981;DHT22;479;53.514;9.994;2022-12-18T12:23:29;-1.90;99.90
981;DHT22;479;53.514;9.994;2022-12-18T12:26:03;-1.90;99.90
981;DHT22;479;53.514;9.994;2022-12-18T12:28:49;-1.80;99.90
981;DHT22;479;53.514;9.994;2022-12-18T12:31:26;-1.80;99.90
981;DHT22;479;53.514;9.994;2022-12-18T12:34:01;-1.80;99.90
981;DHT22;479;53.514;9.994;2022-12-18T12:36:35;-1.70;99.90
981;DHT22;479;53.514;9.994;2022-12-18T12:39:10;-1.70;99.90
981;DHT22;479;53.514;9.994;2022-12-18T12:41:41;-1.70;99.90
981;DHT22;479;53.514;9.994;2022-12-18T12:44:29;-1.70;99.90
981;DHT22;479;53.514;9.994;2022-12-18T12:47:00;-1.60;99.90
981;DHT22;479;53.514;9.994;2022-12-18T12:49:32;-1.60;99.90
981;DHT22;479;53.514;9.994;2022-12-18T12:52:04;-1.70;99.90
981;DHT22;479;53.514;9.994;2022-12-18T12:54:33;-1.70;99.90
981;DHT22;479;53.514;9.994;2022-12-18T12:57:05;-1.70;99.90
981;DHT22;479;53.514;9.994;2022-12-18T12:59:40;-1.70;99.90
981;DHT22;479;53.514;9.994;2022-12-18T13:02:20;-1.70;99.90
981;DHT22;479;53.514;9.994;2022-12-18T13:04:52;-1.70;99.90
981;DHT22;479;53.514;9.994;2022-12-18T13:07:24;-1.70;99.90
981;DHT22;479;53.514;9.994;2022-12-18T13:12:57;-1.70;99.90
981;DHT22;479;53.514;9.994;2022-12-18T13:15:26;-1.60;99.90
981;DHT22;479;53.514;9.994;2022-12-18T13:18:18;-1.70;99.90
981;DHT22;479;53.514;9.994;2022-12-18T13:20:47;-1.60;99.90
981;DHT22;479;53.514;9.994;2022-12-18T13:23:27;-1.70;99.90
981;DHT22;479;53.514;9.994;2022-12-18T13:25:56;-1.70;99.90
981;DHT22;479;53.514;9.994;2022-12-18T13:28:51;-1.80;99.90
981;DHT22;479;53.514;9.994;2022-12-18T13:34:33;-1.90;99.90
981;DHT22;479;53.514;9.994;2022-12-18T13:43:35;-2.00;99.90
981;DHT22;479;53.514;9.994;2022-12-18T13:46:06;-2.10;99.90
981;DHT22;479;53.514;9.994;2022-12-18T13:48:50;-2.20;99.90
981;DHT22;479;53.514;9.994;2022-12-18T13:51:17;-2.10;99.90
981;DHT22;479;53.514;9.994;2022-12-18T13:53:50;-2.20;99.90
981;DHT22;479;53.514;9.994;2022-12-18T13:56:21;-2.20;99.90
981;DHT22;479;53.514;9.994;2022-12-18T14:01:47;-2.20;99.90
981;DHT22;479;53.514;9.994;2022-12-18T14:04:21;-2.20;99.90
981;DHT22;479;53.514;9.994;2022-12-18T14:06:50;-2.30;99.90
981;DHT22;479;53.514;9.994;2022-12-18T14:09:21;-2.30;99.90
981;DHT22;479;53.514;9.994;2022-12-18T14:11:50;-2.40;99.90
981;DHT22;479;53.514;9.994;2022-12-18T14:14:18;-2.40;99.90
981;DHT22;479;53.514;9.994;2022-12-18T14:16:47;-2.40;99.90
981;DHT22;479;53.514;9.994;2022-12-18T14:19:17;-2.40;99.90
981;DHT22;479;53.514;9.994;2022-12-18T14:21:48;-2.50;99.90
981;DHT22;479;53.514;9.994;2022-12-18T14:24:18;-2.50;99.90
981;DHT22;479;53.514;9.994;2022-12-18T14:26:46;-2.50;99.90
981;DHT22;479;53.514;9.994;2022-12-18T14:29:22;-2.50;99.90
981;DHT22;479;53.514;9.994;2022-12-18T14:32:09;-2.50;99.90
981;DHT22;479;53.514;9.994;2022-12-18T14:34:36;-2.50;99.90
981;DHT22;479;53.514;9.994;2022-12-18T14:37:03;-2.60;99.90
981;DHT22;479;53.514;9.994;2022-12-18T14:39:30;-2.60;99.90
981;DHT22;479;53.514;9.994;2022-12-18T14:41:57;-2.60;99.90
981;DHT22;479;53.514;9.994;2022-12-18T14:44:24;-2.60;99.90
981;DHT22;479;53.514;9.994;2022-12-18T14:46:51;-2.70;99.90
981;DHT22;479;53.514;9.994;2022-12-18T14:49:23;-2.70;99.90
981;DHT22;479;53.514;9.994;2022-12-18T14:51:53;-2.70;99.90
981;DHT22;479;53.514;9.994;2022-12-18T14:54:21;-2.70;99.90
981;DHT22;479;53.514;9.994;2022-12-18T14:56:50;-2.80;99.90
981;DHT22;479;53.514;9.994;2022-12-18T14:59:22;-2.80;99.90
981;DHT22;479;53.514;9.994;2022-12-18T15:01:58;-2.80;99.90
981;DHT22;479;53.514;9.994;2022-12-18T15:04:32;-2.80;99.90
981;DHT22;479;53.514;9.994;2022-12-18T15:07:07;-2.90;99.90
981;DHT22;479;53.514;9.994;2022-12-18T15:09:37;-2.90;99.90
981;DHT22;479;53.514;9.994;2022-12-18T15:12:05;-2.90;99.90
981;DHT22;479;53.514;9.994;2022-12-18T15:14:34;-3.00;99.90
981;DHT22;479;53.514;9.994;2022-12-18T15:17:05;-2.90;99.90
981;DHT22;479;53.514;9.994;2022-12-18T15:19:38;-3.00;99.90
981;DHT22;479;53.514;9.994;2022-12-18T15:22:25;-2.90;99.90
981;DHT22;479;53.514;9.994;2022-12-18T15:24:53;-3.00;99.90
981;DHT22;479;53.514;9.994;2022-12-18T15:27:26;-3.00;99.90
981;DHT22;479;53.514;9.994;2022-12-18T15:32:42;-3.10;99.90
981;DHT22;479;53.514;9.994;2022-12-18T15:35:14;-3.00;99.90
981;DHT22;479;53.514;9.994;2022-12-18T15:37:42;-3.10;99.90
981;DHT22;479;53.514;9.994;2022-12-18T15:40:13;-3.10;99.90
981;DHT22;479;53.514;9.994;2022-12-18T15:42:41;-3.00;99.90
981;DHT22;479;53.514;9.994;2022-12-18T15:45:26;-3.10;99.90
981;DHT22;479;53.514;9.994;2022-12-18T15:47:52;-3.10;99.90
981;DHT22;479;53.514;9.994;2022-12-18T15:50:21;-3.00;99.90
981;DHT22;479;53.514;9.994;2022-12-18T15:52:52;-3.00;99.90
981;DHT22;479;53.514;9.994;2022-12-18T15:55:21;-3.00;99.90
981;DHT22;479;53.514;9.994;2022-12-18T15:58:08;-3.00;99.90
981;DHT22;479;53.514;9.994;2022-12-18T16:00:37;-3.00;99.90
981;DHT22;479;53.514;9.994;2022-12-18T16:03:05;-3.00;99.90
981;DHT22;479;53.514;9.994;2022-12-18T16:05:33;-3.00;99.90
981;DHT22;479;53.514;9.994;2022-12-18T16:08:00;-3.00;99.90
981;DHT22;479;53.514;9.994;2022-12-18T16:10:27;-3.00;99.90
981;DHT22;479;53.514;9.994;2022-12-18T16:12:54;-3.00;99.90
981;DHT22;479;53.514;9.994;2022-12-18T16:15:21;-2.90;99.90
981;DHT22;479;53.514;9.994;2022-12-18T16:17:48;-2.90;99.90
981;DHT22;479;53.514;9.994;2022-12-18T16:20:17;-2.90;99.90
981;DHT22;479;53.514;9.994;2022-12-18T16:22:46;-2.80;99.90
981;DHT22;479;53.514;9.994;2022-12-18T16:25:18;-2.90;99.90
981;DHT22;479;53.514;9.994;2022-12-18T16:27:48;-2.90;99.90
981;DHT22;479;53.514;9.994;2022-12-18T16:30:17;-2.90;99.90
981;DHT22;479;53.514;9.994;2022-12-18T16:32:44;-2.90;99.90
981;DHT22;479;53.514;9.994;2022-12-18T16:35:16;-3.00;99.90
981;DHT22;479;53.514;9.994;2022-12-18T16:37:44;-2.90;99.90
981;DHT22;479;53.514;9.994;2022-12-18T16:40:13;-3.00;99.90
981;DHT22;479;53.514;9.994;2022-12-18T16:42:42;-3.00;99.90
981;DHT22;479;53.514;9.994;2022-12-18T16:45:12;-3.00;99.90
981;DHT22;479;53.514;9.994;2022-12-18T16:47:40;-3.00;99.90
981;DHT22;479;53.514;9.994;2022-12-18T16:50:07;-3.00;99.90
981;DHT22;479;53.514;9.994;2022-12-18T16:52:35;-3.10;99.90
981;DHT22;479;53.514;9.994;2022-12-18T16:55:04;-3.00;99.90
981;DHT22;479;53.514;9.994;2022-12-18T16:57:31;-3.10;99.90
981;DHT22;479;53.514;9.994;2022-12-18T16:59:58;-3.00;99.90
981;DHT22;479;53.514;9.994;2022-12-18T17:02:26;-3.00;99.90
981;DHT22;479;53.514;9.994;2022-12-18T17:04:55;-3.10;99.90
981;DHT22;479;53.514;9.994;2022-12-18T17:07:23;-3.00;99.90
981;DHT22;479;53.514;9.994;2022-12-18T17:09:50;-3.00;99.90
981;DHT22;479;53.514;9.994;2022-12-18T17:12:20;-3.00;99.90
981;DHT22;479;53.514;9.994;2022-12-18T17:14:47;-3.00;99.90
981;DHT22;479;53.514;9.994;2022-12-18T17:17:14;-3.00;99.90